Friday, April 29, 2016
17:53 UTC
  |  Log In   |  Register Free
Airport Search:

Lenawee County Airport
(KADG)

Lenawee County Airport Diagram
No Airport Diagram Available

FAA data valid effective Mar 31 2016 - May 26 2016 (unless otherwise noted).

 
 
 
 
 
 
 
 
 
 
 
 
 
 
Current Aviation Weather for KADG

Weather Summary


The most recent METAR observation for ADG was updated at: 12:53 UTC
METAR for KADG is not available. Closest METAR is for KUSE
KADG  (most recent observation was updatred at 29:16 UTC)
291653Z AUTO 04007KT 10SM OVC035 11/02 A3007 RMK AO2 SLP188 T01060022

KUSE  (15.6 nm NE)   (most recent observation was updated at 29:17 UTC)
291735Z AUTO VRB06KT 10SM 11/ A3005 RMK AO2

KDUH  (20.5 nm NW)   (most recent observation was updated at 29:17 UTC)
291734Z AUTO 00000KT 10SM SCT032 BKN039 BKN050 13/04 A3005 RMK AO2 T01300039

TAF for KADG is not available.
KTOL  (20.7 nm NW)   (most recent observation was updatred at 29:17 UTC)
291729Z 2918/3018 36008KT P6SM BKN035 FM292100 03006KT P6SM BKN050 FM300000 06003KT P6SM SCT050 FM301200 08008KT P6SM OVC100


KJXN  (29.1 nm SE)   (most recent observation was updatred at 29:17 UTC)
291730Z 2918/3018 04006KT P6SM OVC025 TEMPO 2918/2919 OVC035 FM291900 05005KT P6SM BKN040 FM301100 09006KT P6SM BKN200


KYIP  (33.0 nm SW)   (most recent observation was updatred at 29:17 UTC)
291725Z 2918/3018 03008KT P6SM BKN028 OVC035 FM291900 03008KT P6SM OVC035 FM300000 07004KT P6SM BKN045 FM300500 02003KT P6SM SCT045 FM301500 08010KT P6SM OVC150
GlobalAir.com is loading additional information.
 Current Weather at ADG
49.0 F° (9.4 C°)

Northeast winds at 6.9 mph
Pressure:
30.08 in
Humidity:
61%
Wind:
Northeast at 6.9 mph
Dew Point:
36.0 F° (2.2 C°)
Visibility:
10.00 mi
ADG NOAA Radar




Find All Airport Services Find A Hotel Find A Rental Car Find A Golf Course Find A Restaurant $100 Hamburger



Airport Weather Forecast for KADG

Translated METAR for KADG (1653 UTC)
METAR:
KADG 291653Z AUTO 04007KT 10SM OVC035 11/02 A3007 RMK AO2 SLP188 T01060022
Conditions at:
KADG (Lenawee County, MI) observed 1653 UTC 29 April 2016
Temperature:
11°C (51.8°F)
Dewpoint:
2°C (35.6°F) [RH = 53.8]
Pressure:
30.07 inches Hg (1018.3 mb)
pressure at sea level is 188 in Hg
Winds:
from the NE (040 degrees) at 8.1 mph (7 knots: 3.6 m/s)
Visibility:
10 mile(s)
Ceiling:
3,500 feet AGL
Clouds:
Overcast Skies at 3,500 feet AGL
Remarks:
site is un-manned
site is automated and HAS a precipitation sensor

Translated TAF for KTOL (Toledo Express, OH) (1729 UTC)
TAF text:
KTOL 291729Z 2918/3018 36008KT P6SM BKN035
Forecast period:
Friday Apr 29 2016 18:00 UTC - Saturday Apr 30 2016 18:00 UTC
Forecast type:
FROM: standard forecast or significant change
Winds:
from the N (360 degrees) at 9.2 mph (8 knots: 4.1 m/s)
Visibility:
6 or more mile(s) (9.7+ km)
Ceiling:
3,500 feet AGL
Clouds:
Broken Cloud Cover at 3,500 feet AGL
Weather:
no significant weather observed at this time
TAF text:
FM292100 03006KT P6SM BKN050
Forecast period:
Friday Apr 29 2016 21:00 UTC - Saturday Apr 30 2016 00:00 UTC
Forecast type:
FROM: standard forecast or significant change
Winds:
from the NNE (030 degrees) at 6.9 mph (6 knots: 3.1 m/s)
Visibility:
6 or more mile(s) (9.7+ km)
Ceiling:
5,000 feet AGL
Clouds:
Broken Cloud Cover at 5,000 feet AGL
Weather:
no significant weather observed at this time
TAF text:
FM300000 06003KT P6SM SCT050
Forecast period:
Saturday Apr 30 2016 00:00 UTC - Saturday Apr 30 2016 12:00 UTC
Forecast type:
FROM: standard forecast or significant change
Winds:
from the ENE (060 degrees) at 3.5 mph (3 knots: 1.5 m/s)
Visibility:
6 or more mile(s) (9.7+ km)
Ceiling:
at least 12,000 feet AGL
Clouds:
Scattered Clouds at 5,000 feet AGL
Weather:
no significant weather observed at this time
TAF text:
FM301200 08008KT P6SM OVC100
Forecast period:
Saturday Apr 30 2016 12:00 UTC - Saturday Apr 30 2016 18:00 UTC
Forecast type:
FROM: standard forecast or significant change
Winds:
from the E (080 degrees) at 9.2 mph (8 knots: 4.1 m/s)
Visibility:
6 or more mile(s) (9.7+ km)
Ceiling:
10,000 feet AGL
Clouds:
Overcast Skies at 10,000 feet AGL
Weather:
no significant weather observed at this time
FBO's on the Field
FBO Company Facility Photos Services Transportation Aviation Fuel Prices: Prices include tax
Catering Weather Repair Courtesy Rental Type 100LL JetA JetA+ MOGAS 8087
 
Lenawee County Airport

This FBO has not yet been rated
FS:Avfuel
Last Updated: Apr-21
Login to update fuel prices
SS:
Contact Lenawee County AirportMore FBO Information
 
Add another FBO Facility Photos Catering Weather Repair Courtesy Rental Type 100LL JetA JetA+ MOGAS 8087
Services Transportation Aviation Fuel Prices: Prices include tax


model-print
model-print
model-print
model-print